Time;durP1;ratioP1;P1;durP2;ratioP2;P2;SDS_P1;SDS_P2;PMS_P1;PMS_P2;Temp;Humidity;BMP_temperature;BMP_pressure;BME280_temperature;BME280_humidity;BME280_pressure;Samples;Min_cycle;Max_cycle;Signal;HPM_P1;HPM_P2
2021/11/03 00:02:11;;;;;;;6.68;5.97;;;6.80;99.90;;;;;;5050276;28;20651;-77
2021/11/03 00:04:39;;;;;;;6.38;4.95;;;6.80;99.90;;;;;;5051321;28;20262;-77
2021/11/03 00:07:06;;;;;;;6.20;5.15;;;6.80;99.90;;;;;;5046202;28;20261;-79
2021/11/03 00:09:33;;;;;;;5.55;4.82;;;6.80;99.90;;;;;;5038991;28;20206;-78
2021/11/03 00:12:02;;;;;;;4.70;4.30;;;6.90;99.90;;;;;;5037391;28;20239;-77
2021/11/03 00:14:28;;;;;;;5.30;4.80;;;6.80;99.90;;;;;;5045890;28;20207;-77
2021/11/03 00:16:56;;;;;;;5.15;4.45;;;6.80;99.90;;;;;;5045350;28;20304;-77
2021/11/03 00:19:23;;;;;;;5.35;4.85;;;6.80;99.90;;;;;;5045614;28;20204;-78
2021/11/03 00:21:49;;;;;;;4.43;4.00;;;6.90;99.90;;;;;;5037622;28;20481;-77
2021/11/03 00:24:16;;;;;;;5.28;4.78;;;6.90;99.90;;;;;;5034773;28;20669;-77
2021/11/03 00:26:43;;;;;;;5.45;4.50;;;6.90;99.90;;;;;;5034843;28;20237;-78
2021/11/03 00:29:11;;;;;;;5.10;4.60;;;6.90;99.90;;;;;;5036874;28;20291;-78
2021/11/03 00:31:38;;;;;;;3.60;3.30;;;6.90;99.90;;;;;;5055410;28;20211;-76
2021/11/03 00:34:05;;;;;;;3.80;3.10;;;7.00;99.90;;;;;;5053970;28;20234;-79
2021/11/03 00:36:32;;;;;;;5.13;4.57;;;7.00;99.90;;;;;;5047632;28;20240;-78
2021/11/03 00:38:59;;;;;;;5.22;3.17;;;7.00;99.90;;;;;;5035384;28;20692;-78
2021/11/03 00:41:26;;;;;;;5.38;3.40;;;7.10;99.90;;;;;;5052575;28;20235;-76
2021/11/03 00:43:53;;;;;;;3.47;3.17;;;7.10;99.90;;;;;;5057212;28;20274;-78
2021/11/03 00:46:22;;;;;;;3.15;2.85;;;7.10;99.90;;;;;;5057082;28;20207;-77
2021/11/03 00:48:48;;;;;;;4.20;2.90;;;7.20;99.90;;;;;;5044382;28;20207;-78
2021/11/03 00:51:15;;;;;;;3.83;2.65;;;7.20;99.90;;;;;;5039020;28;20293;-78
2021/11/03 00:53:43;;;;;;;2.70;2.50;;;7.20;99.90;;;;;;5038042;28;20242;-78
2021/11/03 00:56:09;;;;;;;3.55;3.25;;;7.20;99.90;;;;;;5038046;28;20231;-78
2021/11/03 00:58:36;;;;;;;3.00;2.70;;;7.20;99.90;;;;;;5038142;28;20233;-78
2021/11/03 01:01:04;;;;;;;3.83;3.35;;;7.20;99.90;;;;;;5038443;28;20619;-79
2021/11/03 01:03:32;;;;;;;6.00;3.65;;;7.20;99.90;;;;;;5038575;28;20205;-78
2021/11/03 01:05:59;;;;;;;4.18;3.50;;;7.20;99.90;;;;;;5038025;28;20218;-78
2021/11/03 01:08:26;;;;;;;5.88;4.30;;;7.20;99.90;;;;;;5038117;28;20203;-78
2021/11/03 01:10:54;;;;;;;4.50;3.50;;;7.20;99.90;;;;;;5038017;28;20676;-77
2021/11/03 01:13:24;;;;;;;3.38;3.15;;;7.10;99.90;;;;;;5046702;28;20211;-76
2021/11/03 01:15:51;;;;;;;3.50;3.20;;;7.10;99.90;;;;;;5061161;28;20239;-75
2021/11/03 01:18:18;;;;;;;3.65;3.35;;;7.10;99.90;;;;;;5061048;28;20215;-75
2021/11/03 01:20:47;;;;;;;3.88;3.47;;;7.00;99.90;;;;;;5061327;28;20195;-75
2021/11/03 01:23:14;;;;;;;4.82;3.65;;;7.10;99.90;;;;;;5061208;28;20194;-75
2021/11/03 01:25:41;;;;;;;3.67;3.38;;;7.10;99.90;;;;;;5060319;28;20201;-77
2021/11/03 01:28:08;;;;;;;4.00;3.60;;;7.10;99.90;;;;;;5041567;28;20588;-77
2021/11/03 01:30:35;;;;;;;3.88;3.17;;;7.10;99.90;;;;;;5040401;28;20291;-76
2021/11/03 01:33:03;;;;;;;3.15;2.85;;;7.10;99.90;;;;;;5039304;28;20201;-77
2021/11/03 01:35:30;;;;;;;4.47;3.70;;;7.10;99.90;;;;;;5038745;28;20214;-78
2021/11/03 01:37:58;;;;;;;4.00;3.30;;;7.10;99.90;;;;;;5039592;28;20238;-78
2021/11/03 01:40:29;;;;;;;4.30;3.85;;;7.10;99.90;;;;;;5044826;28;20267;-78
2021/11/03 01:42:57;;;;;;;3.42;3.00;;;7.10;99.90;;;;;;5059832;28;20255;-76
2021/11/03 01:45:26;;;;;;;6.68;3.20;;;7.20;99.90;;;;;;5060351;28;20203;-76
2021/11/03 01:47:54;;;;;;;4.43;3.03;;;7.20;99.90;;;;;;5060273;28;20240;-75
2021/11/03 01:50:31;;;;;;;3.50;2.92;;;7.30;99.90;;;;;;5053340;28;20237;-78
2021/11/03 01:53:05;;;;;;;2.90;2.67;;;7.30;99.90;;;;;;5042922;28;20217;-75
2021/11/03 01:55:34;;;;;;;3.85;2.72;;;7.40;99.90;;;;;;5055418;28;20188;-76
2021/11/03 01:58:06;;;;;;;2.83;2.30;;;7.50;99.90;;;;;;5048596;28;20747;-77
2021/11/03 02:00:37;;;;;;;2.30;2.10;;;7.60;99.90;;;;;;5036791;28;20645;-77
2021/11/03 02:03:08;;;;;;;4.60;2.40;;;7.60;99.90;;;;;;5038967;28;20207;-79
2021/11/03 02:05:36;;;;;;;2.00;1.90;;;7.70;99.90;;;;;;5036937;28;20212;-78
2021/11/03 02:08:05;;;;;;;3.30;2.00;;;7.70;99.90;;;;;;5036970;28;20720;-77
2021/11/03 02:10:32;;;;;;;2.40;2.20;;;7.70;99.90;;;;;;5036554;28;20210;-78
2021/11/03 02:12:59;;;;;;;2.38;2.17;;;7.80;99.90;;;;;;5036959;28;20238;-78
2021/11/03 02:15:27;;;;;;;3.17;1.90;;;7.80;99.90;;;;;;5036639;28;20296;-78
2021/11/03 02:17:55;;;;;;;1.80;1.70;;;7.80;99.90;;;;;;5037082;28;20239;-77
2021/11/03 02:20:24;;;;;;;1.95;1.85;;;7.80;99.90;;;;;;5037605;28;20300;-78
2021/11/03 02:23:06;;;;;;;4.60;2.00;;;7.90;99.90;;;;;;5036923;28;20216;-78
2021/11/03 02:25:39;;;;;;;1.92;1.60;;;7.90;99.90;;;;;;5036669;28;20215;-77
2021/11/03 02:28:07;;;;;;;1.73;1.63;;;7.90;99.90;;;;;;5036514;28;20231;-79
2021/11/03 02:30:34;;;;;;;2.78;1.73;;;7.90;99.90;;;;;;5036376;28;20718;-78
2021/11/03 02:33:06;;;;;;;1.58;1.48;;;7.80;99.90;;;;;;5036405;28;20209;-77
2021/11/03 02:35:33;;;;;;;2.58;1.98;;;7.80;99.90;;;;;;5037022;28;20262;-77
2021/11/03 02:38:01;;;;;;;2.20;1.90;;;7.80;99.90;;;;;;5036642;28;20245;-78
2021/11/03 02:40:47;;;;;;;1.40;1.30;;;7.80;99.90;;;;;;5036906;28;20245;-78
2021/11/03 02:43:21;;;;;;;1.58;1.48;;;7.80;99.90;;;;;;5036341;28;20217;-78
2021/11/03 02:45:52;;;;;;;2.63;1.60;;;7.80;99.90;;;;;;5036443;28;20203;-78
2021/11/03 02:48:20;;;;;;;4.13;1.95;;;7.80;99.90;;;;;;5036106;28;20235;-78
2021/11/03 02:51:00;;;;;;;3.90;1.90;;;7.80;99.90;;;;;;5035651;28;20221;-78
2021/11/03 02:53:27;;;;;;;2.83;1.60;;;7.80;99.90;;;;;;5036139;28;20210;-78
2021/11/03 02:55:55;;;;;;;4.40;1.73;;;7.80;99.90;;;;;;5035839;28;20227;-77
2021/11/03 02:58:23;;;;;;;2.00;1.80;;;7.90;99.90;;;;;;5036558;28;20232;-76
2021/11/03 03:00:50;;;;;;;2.58;1.75;;;7.90;99.90;;;;;;5037536;28;20238;-78
2021/11/03 03:03:17;;;;;;;1.63;1.52;;;7.80;99.90;;;;;;5037150;28;20222;-78
2021/11/03 03:05:51;;;;;;;5.75;2.15;;;7.90;99.90;;;;;;5037070;28;20562;-78
2021/11/03 03:08:18;;;;;;;2.88;1.55;;;7.80;99.90;;;;;;5036743;28;20299;-78
2021/11/03 03:10:45;;;;;;;2.78;1.83;;;7.80;99.90;;;;;;5036943;28;20273;-79
2021/11/03 03:13:13;;;;;;;2.83;1.60;;;7.80;99.90;;;;;;5036540;28;20301;-77
2021/11/03 03:15:40;;;;;;;2.25;1.63;;;7.80;99.90;;;;;;5039190;28;20215;-78
2021/11/03 03:18:07;;;;;;;3.65;2.10;;;7.90;99.90;;;;;;5049466;28;20243;-75
2021/11/03 03:20:34;;;;;;;3.78;2.20;;;7.80;99.90;;;;;;5058228;28;20210;-75
2021/11/03 03:23:01;;;;;;;2.25;1.70;;;7.80;99.90;;;;;;5057302;28;20210;-76
2021/11/03 03:25:30;;;;;;;3.45;1.60;;;7.80;99.90;;;;;;5043551;28;20304;-78
2021/11/03 03:27:57;;;;;;;2.28;1.65;;;7.90;99.90;;;;;;5042285;28;20234;-78
2021/11/03 03:30:25;;;;;;;2.88;1.85;;;7.80;99.90;;;;;;5042914;28;20272;-77
2021/11/03 03:32:52;;;;;;;1.85;1.75;;;7.80;99.90;;;;;;5044223;28;20294;-78
2021/11/03 03:35:19;;;;;;;3.97;2.00;;;7.60;99.90;;;;;;5042056;28;20209;-77
2021/11/03 03:37:48;;;;;;;1.95;1.80;;;7.60;99.90;;;;;;5038653;28;20259;-78
2021/11/03 03:40:15;;;;;;;2.47;1.80;;;7.50;99.90;;;;;;5052792;28;20210;-77
2021/11/03 03:42:42;;;;;;;2.75;2.15;;;7.50;99.90;;;;;;5052899;28;20220;-77
2021/11/03 03:45:10;;;;;;;2.53;1.98;;;7.40;99.90;;;;;;5050501;28;20278;-79
2021/11/03 03:47:38;;;;;;;2.63;2.30;;;7.40;99.90;;;;;;5048332;28;20262;-78
2021/11/03 03:50:05;;;;;;;3.55;2.70;;;7.40;99.90;;;;;;5053638;28;20225;-78
2021/11/03 03:52:32;;;;;;;2.63;2.40;;;7.40;99.90;;;;;;5052047;28;20208;-78
2021/11/03 03:54:59;;;;;;;1.85;1.75;;;7.40;99.90;;;;;;5054306;28;20214;-78
2021/11/03 03:57:26;;;;;;;2.15;2.00;;;7.40;99.90;;;;;;5047859;28;20231;-78
2021/11/03 03:59:53;;;;;;;3.08;2.80;;;7.40;99.90;;;;;;5049057;28;20251;-76
2021/11/03 04:02:20;;;;;;;2.55;1.88;;;7.40;99.90;;;;;;5055020;28;20213;-74
2021/11/03 04:04:49;;;;;;;3.95;2.55;;;7.40;99.90;;;;;;5056499;28;20232;-79
2021/11/03 04:07:16;;;;;;;4.50;2.60;;;7.40;99.90;;;;;;5057861;28;20240;-76
2021/11/03 04:09:42;;;;;;;2.85;2.65;;;7.30;99.90;;;;;;5057265;28;20200;-78
2021/11/03 04:12:10;;;;;;;5.55;2.83;;;7.30;99.90;;;;;;5041852;28;20211;-77
2021/11/03 04:14:37;;;;;;;2.50;2.30;;;7.30;99.90;;;;;;5043773;28;20601;-78
2021/11/03 04:17:04;;;;;;;3.05;2.85;;;7.30;99.90;;;;;;5041075;28;20227;-78
2021/11/03 04:19:31;;;;;;;2.75;2.33;;;7.30;99.90;;;;;;5034740;28;20227;-77
2021/11/03 04:21:59;;;;;;;3.00;2.80;;;7.30;99.90;;;;;;5035262;28;20218;-78
2021/11/03 04:24:26;;;;;;;2.60;2.40;;;7.30;99.90;;;;;;5035088;28;20689;-78
2021/11/03 04:26:53;;;;;;;3.20;2.70;;;7.40;99.90;;;;;;5035564;28;20262;-78
2021/11/03 04:29:21;;;;;;;2.47;2.28;;;7.40;99.90;;;;;;5035772;28;20551;-77
2021/11/03 04:31:49;;;;;;;2.45;2.25;;;7.30;99.90;;;;;;5035538;28;20675;-77
2021/11/03 04:34:17;;;;;;;2.05;1.92;;;7.40;99.90;;;;;;5035453;28;20239;-78
2021/11/03 04:36:44;;;;;;;2.80;2.60;;;7.50;99.90;;;;;;5035664;28;20228;-78
2021/11/03 04:39:12;;;;;;;2.45;2.35;;;7.50;99.90;;;;;;5037166;28;20314;-78
2021/11/03 04:41:40;;;;;;;3.25;2.78;;;7.50;99.90;;;;;;5037010;28;20231;-79
2021/11/03 04:44:08;;;;;;;2.30;2.10;;;7.60;99.90;;;;;;5036661;28;20212;-77
2021/11/03 04:46:35;;;;;;;2.60;2.08;;;7.60;99.90;;;;;;5036236;28;20589;-78
2021/11/03 04:49:02;;;;;;;1.83;1.73;;;7.70;99.90;;;;;;5034548;28;20658;-77
2021/11/03 04:51:29;;;;;;;2.75;2.05;;;7.70;99.90;;;;;;5034379;28;20751;-77
2021/11/03 04:53:56;;;;;;;4.78;2.17;;;7.70;99.90;;;;;;5043163;28;20200;-77
2021/11/03 04:56:26;;;;;;;2.10;1.65;;;7.70;99.90;;;;;;5047704;28;20251;-77
2021/11/03 04:58:54;;;;;;;2.35;2.00;;;7.70;99.90;;;;;;5045511;28;20227;-79
2021/11/03 05:01:22;;;;;;;2.13;2.03;;;7.70;99.90;;;;;;5044346;28;20232;-79
2021/11/03 05:03:50;;;;;;;2.47;1.90;;;7.70;99.90;;;;;;5041017;28;20240;-77
2021/11/03 05:06:20;;;;;;;2.47;2.13;;;7.70;99.90;;;;;;5034809;28;20251;-78
2021/11/03 05:08:48;;;;;;;2.03;1.92;;;7.70;99.90;;;;;;5035477;28;20203;-79
2021/11/03 05:11:15;;;;;;;2.10;1.92;;;7.70;99.90;;;;;;5034375;28;20208;-78
2021/11/03 05:13:44;;;;;;;3.08;2.00;;;7.80;99.90;;;;;;5034320;28;20212;-77
2021/11/03 05:16:14;;;;;;;2.53;2.00;;;7.70;99.90;;;;;;5034675;28;20228;-78
2021/11/03 05:18:41;;;;;;;2.42;2.22;;;7.70;99.90;;;;;;5034374;28;20222;-77
2021/11/03 05:21:08;;;;;;;2.22;2.00;;;7.70;99.90;;;;;;5034823;28;20231;-78
2021/11/03 05:23:36;;;;;;;2.25;2.05;;;7.70;99.90;;;;;;5034548;28;20256;-78
2021/11/03 05:26:03;;;;;;;2.20;2.00;;;7.70;99.90;;;;;;5034746;28;20300;-78
2021/11/03 05:28:31;;;;;;;3.08;2.00;;;7.80;99.90;;;;;;5035687;28;20253;-78
2021/11/03 05:30:59;;;;;;;2.13;1.77;;;7.80;99.90;;;;;;5035191;28;20242;-78
2021/11/03 05:33:26;;;;;;;2.67;2.08;;;7.90;99.90;;;;;;5047462;28;20225;-77
2021/11/03 05:35:53;;;;;;;2.00;1.65;;;7.90;99.90;;;;;;5055084;28;20210;-76
2021/11/03 05:38:20;;;;;;;4.15;2.03;;;7.90;99.90;;;;;;5059918;28;20284;-76
2021/11/03 05:40:47;;;;;;;2.10;2.00;;;8.00;99.90;;;;;;5059019;28;20208;-77
2021/11/03 05:43:14;;;;;;;2.20;2.00;;;7.90;98.90;;;;;;5050614;28;20209;-77
2021/11/03 05:45:41;;;;;;;2.85;1.90;;;8.00;99.10;;;;;;5041051;28;20213;-77
2021/11/03 05:48:11;;;;;;;2.63;2.10;;;8.00;99.40;;;;;;5054371;28;20240;-77
2021/11/03 05:50:38;;;;;;;2.42;2.25;;;7.90;99.70;;;;;;5054525;28;20189;-77
2021/11/03 05:53:05;;;;;;;3.33;3.03;;;7.90;99.90;;;;;;5054504;28;20304;-77
2021/11/03 05:55:32;;;;;;;2.72;2.40;;;7.80;99.90;;;;;;5055556;28;20219;-77
2021/11/03 05:58:02;;;;;;;3.42;3.13;;;7.70;99.90;;;;;;5057566;28;20239;-78
2021/11/03 06:00:36;;;;;;;3.55;3.15;;;7.70;99.90;;;;;;5047812;28;20221;-77
2021/11/03 06:03:04;;;;;;;5.35;3.65;;;7.70;99.90;;;;;;5039143;28;20216;-77
2021/11/03 06:05:33;;;;;;;3.80;3.40;;;7.60;99.90;;;;;;5040016;28;20216;-77
2021/11/03 06:08:04;;;;;;;3.97;3.30;;;7.60;99.90;;;;;;5039972;28;20236;-77
2021/11/03 06:10:40;;;;;;;3.75;3.45;;;7.60;99.90;;;;;;5040946;28;20198;-77
2021/11/03 06:13:08;;;;;;;4.15;2.92;;;7.60;99.90;;;;;;5040603;28;20213;-77
2021/11/03 06:15:37;;;;;;;3.83;2.92;;;7.60;99.90;;;;;;5045950;28;20584;-78
2021/11/03 06:18:04;;;;;;;3.53;2.85;;;7.70;99.90;;;;;;5052728;28;20228;-77
2021/11/03 06:20:33;;;;;;;3.83;3.40;;;7.70;99.90;;;;;;5055613;28;20252;-78
2021/11/03 06:23:00;;;;;;;3.55;2.83;;;7.70;99.90;;;;;;5057713;28;20248;-78
2021/11/03 06:28:15;;;;;;;3.35;2.75;;;7.80;99.90;;;;;;5054364;28;20208;-78
2021/11/03 06:30:49;;;;;;;3.28;2.97;;;7.90;99.90;;;;;;5057811;28;20207;-77
2021/11/03 06:33:16;;;;;;;2.70;2.50;;;8.10;99.90;;;;;;5049150;28;20220;-77
2021/11/03 06:35:48;;;;;;;2.50;2.30;;;8.10;99.90;;;;;;5057083;28;20209;-77
2021/11/03 06:38:15;;;;;;;2.88;2.63;;;8.10;99.90;;;;;;5054523;28;20220;-77
2021/11/03 06:40:43;;;;;;;2.85;2.58;;;8.10;99.90;;;;;;5054099;28;20227;-79
2021/11/03 06:43:10;;;;;;;2.55;2.08;;;8.10;99.90;;;;;;5053937;28;20240;-78
2021/11/03 06:45:38;;;;;;;2.42;2.20;;;8.10;99.90;;;;;;5056045;28;20277;-77
2021/11/03 06:53:22;;;;;;;3.55;2.47;;;8.30;99.90;;;;;;5582233;22;20320;-78
2021/11/03 06:59:35;;;;;;;2.70;2.50;;;8.40;99.90;;;;;;5050987;28;20222;-78
2021/11/03 07:02:03;;;;;;;2.47;2.28;;;8.50;99.90;;;;;;5014150;28;20292;-77
2021/11/03 07:04:57;;;;;;;2.50;2.30;;;8.60;99.90;;;;;;5051980;28;20219;-78
2021/11/03 07:10:35;;;;;;;3.15;2.28;;;8.60;99.90;;;;;;5385098;22;20241;-77
2021/11/03 07:13:04;;;;;;;2.67;2.47;;;8.60;99.90;;;;;;5053826;28;20194;-77
2021/11/03 07:15:32;;;;;;;2.38;2.22;;;8.60;99.90;;;;;;5053851;28;20270;-78
2021/11/03 07:18:00;;;;;;;4.15;2.22;;;8.60;99.90;;;;;;5055533;28;20245;-77
2021/11/03 07:23:32;;;;;;;5.30;2.83;;;8.70;99.90;;;;;;5009786;28;20207;-77
2021/11/03 07:26:01;;;;;;;2.72;2.53;;;8.70;99.90;;;;;;5009207;28;20212;-79
2021/11/03 07:28:28;;;;;;;2.83;2.50;;;8.70;99.90;;;;;;5014626;28;20259;-78
2021/11/03 07:30:55;;;;;;;5.90;3.15;;;8.60;99.90;;;;;;5013696;28;20224;-79
2021/11/03 07:33:23;;;;;;;4.00;3.10;;;8.60;99.90;;;;;;5014159;28;20267;-79
2021/11/03 07:35:50;;;;;;;3.40;3.10;;;8.60;99.90;;;;;;5009797;28;20218;-79
2021/11/03 07:38:18;;;;;;;3.10;2.70;;;8.60;99.90;;;;;;5001859;28;20227;-78
2021/11/03 07:40:49;;;;;;;3.20;3.00;;;8.60;99.90;;;;;;4998029;28;20298;-78
2021/11/03 07:43:19;;;;;;;3.63;3.00;;;8.70;99.90;;;;;;5005800;28;20215;-78
2021/11/03 07:45:48;;;;;;;4.15;2.75;;;8.70;99.90;;;;;;5001949;28;20215;-77
2021/11/03 07:48:15;;;;;;;3.35;2.45;;;8.70;99.90;;;;;;5002256;28;20211;-77
2021/11/03 07:50:45;;;;;;;3.72;2.95;;;8.80;99.90;;;;;;5013791;28;20227;-77
2021/11/03 07:53:13;;;;;;;3.65;2.92;;;8.90;99.90;;;;;;5013259;28;20215;-79
2021/11/03 07:55:43;;;;;;;3.58;3.28;;;9.00;99.90;;;;;;4999691;28;20210;-78
2021/11/03 07:58:14;;;;;;;3.28;2.55;;;9.10;99.90;;;;;;5004111;28;20328;-78
2021/11/03 08:00:43;;;;;;;2.47;2.28;;;9.00;99.90;;;;;;4999625;28;20648;-78
2021/11/03 08:03:10;;;;;;;3.00;2.72;;;8.80;99.90;;;;;;4994422;28;20223;-79
2021/11/03 08:05:37;;;;;;;3.17;2.38;;;8.90;99.90;;;;;;4994718;28;20211;-78
2021/11/03 08:08:09;;;;;;;2.80;2.60;;;8.90;99.90;;;;;;5026492;28;20228;-78
2021/11/03 08:10:37;;;;;;;2.78;2.20;;;8.90;99.90;;;;;;5036726;28;20210;-78
2021/11/03 08:13:05;;;;;;;2.42;2.10;;;9.00;99.90;;;;;;5055542;28;20184;-79
2021/11/03 08:15:33;;;;;;;2.80;2.47;;;8.90;99.90;;;;;;5058191;28;20220;-78
2021/11/03 08:18:01;;;;;;;3.38;2.22;;;8.90;99.90;;;;;;5058055;28;20237;-79
2021/11/03 08:20:29;;;;;;;2.78;2.53;;;8.90;99.90;;;;;;5051515;28;20232;-78
2021/11/03 08:22:58;;;;;;;2.97;2.28;;;8.90;99.90;;;;;;5049398;28;20244;-78
2021/11/03 08:25:26;;;;;;;2.80;2.60;;;9.00;99.50;;;;;;5036816;28;20215;-79
2021/11/03 08:27:53;;;;;;;3.45;2.67;;;8.90;97.90;;;;;;5039055;28;20226;-78
2021/11/03 08:30:21;;;;;;;2.35;2.15;;;8.90;98.00;;;;;;5038240;28;20213;-78
2021/11/03 08:32:51;;;;;;;2.53;2.30;;;8.90;98.40;;;;;;5045674;28;20230;-78
2021/11/03 08:35:22;;;;;;;3.25;2.60;;;8.80;98.40;;;;;;5052967;28;20210;-79
2021/11/03 08:37:51;;;;;;;2.95;2.60;;;8.80;99.00;;;;;;5049685;28;20229;-78
2021/11/03 08:40:21;;;;;;;2.90;2.33;;;8.80;99.70;;;;;;5037939;28;20240;-77
2021/11/03 08:42:50;;;;;;;2.70;2.10;;;8.80;98.70;;;;;;5046945;28;20190;-77
2021/11/03 08:45:17;;;;;;;4.03;2.50;;;8.80;98.80;;;;;;5052914;28;20236;-78
2021/11/03 08:47:44;;;;;;;4.70;2.30;;;8.80;99.20;;;;;;5046806;28;20236;-77
2021/11/03 08:50:14;;;;;;;3.38;2.78;;;8.80;98.70;;;;;;5051726;28;20241;-77
2021/11/03 08:52:43;;;;;;;3.38;2.95;;;8.90;99.50;;;;;;5054738;28;20196;-78
2021/11/03 08:55:10;;;;;;;2.60;2.17;;;9.00;99.80;;;;;;5049458;28;20222;-78
2021/11/03 08:57:37;;;;;;;3.97;2.50;;;9.10;99.90;;;;;;5036497;28;20258;-78
2021/11/03 09:00:07;;;;;;;2.63;2.40;;;9.20;99.40;;;;;;5036133;28;20317;-78
2021/11/03 09:02:34;;;;;;;3.00;2.70;;;9.20;99.20;;;;;;5036002;28;20231;-78
2021/11/03 09:05:01;;;;;;;2.50;2.30;;;9.40;99.50;;;;;;5036867;28;20230;-78
2021/11/03 09:07:29;;;;;;;3.05;2.30;;;9.40;99.20;;;;;;5035869;28;20235;-79
2021/11/03 09:09:57;;;;;;;2.85;2.30;;;9.50;98.70;;;;;;5042145;28;20215;-79
2021/11/03 09:12:24;;;;;;;3.97;3.00;;;9.60;98.20;;;;;;5056913;28;20201;-79
2021/11/03 09:14:51;;;;;;;3.53;2.45;;;9.70;98.80;;;;;;5056292;28;20207;-78
2021/11/03 09:17:18;;;;;;;3.08;2.78;;;9.80;98.00;;;;;;5053320;28;20227;-78
2021/11/03 09:19:45;;;;;;;3.78;2.90;;;9.80;97.20;;;;;;5055338;28;20245;-78
2021/11/03 09:22:12;;;;;;;3.60;2.30;;;9.90;97.10;;;;;;5055642;28;20211;-79
2021/11/03 09:24:39;;;;;;;2.35;1.77;;;9.80;95.20;;;;;;5056323;28;20297;-77
2021/11/03 09:27:13;;;;;;;4.15;2.38;;;9.70;94.40;;;;;;5058203;28;20231;-78
2021/11/03 09:29:40;;;;;;;3.65;2.30;;;9.90;95.60;;;;;;5044986;28;20207;-77
2021/11/03 09:32:11;;;;;;;7.88;3.10;;;9.80;94.80;;;;;;5041343;28;20293;-77
2021/11/03 09:34:38;;;;;;;3.67;2.53;;;9.80;95.90;;;;;;5039868;28;20325;-77
2021/11/03 09:37:10;;;;;;;3.60;2.65;;;9.70;95.50;;;;;;5040781;28;20237;-78
2021/11/03 09:39:38;;;;;;;4.25;3.92;;;9.70;96.60;;;;;;5044283;28;20287;-78
2021/11/03 09:42:06;;;;;;;4.47;3.30;;;9.90;97.90;;;;;;5048020;28;20279;-78
2021/11/03 09:44:37;;;;;;;4.32;2.92;;;10.20;97.80;;;;;;5047843;28;20214;-78
2021/11/03 09:47:20;;;;;;;5.70;2.88;;;10.40;96.90;;;;;;5040000;28;20231;-79
2021/11/03 09:49:55;;;;;;;2.45;2.25;;;10.50;95.50;;;;;;5039575;28;20222;-79
2021/11/03 09:52:25;;;;;;;3.15;2.38;;;10.70;93.40;;;;;;5040716;28;20206;-79
2021/11/03 09:54:55;;;;;;;3.05;2.15;;;10.90;93.50;;;;;;5040265;28;20245;-77
2021/11/03 09:57:30;;;;;;;2.67;2.47;;;11.20;91.90;;;;;;5039356;28;20245;-79
2021/11/03 10:00:07;;;;;;;2.33;2.13;;;11.40;89.80;;;;;;5037902;28;20246;-78
2021/11/03 10:02:44;;;;;;;4.25;3.10;;;11.60;86.10;;;;;;5038528;28;20199;-78
2021/11/03 10:05:29;;;;;;;4.07;3.67;;;11.70;83.60;;;;;;5038714;28;20198;-78
2021/11/03 10:07:59;;;;;;;6.25;3.80;;;11.80;84.30;;;;;;5037514;28;20257;-78
2021/11/03 10:10:32;;;;;;;4.63;3.60;;;11.80;85.60;;;;;;5039248;28;20693;-78
2021/11/03 10:13:01;;;;;;;4.05;3.63;;;11.70;84.70;;;;;;5038391;28;20659;-78
2021/11/03 10:15:31;;;;;;;4.88;3.90;;;11.80;84.00;;;;;;5039259;28;20345;-77
2021/11/03 10:18:16;;;;;;;6.03;4.63;;;11.60;83.30;;;;;;5039680;28;20227;-78
2021/11/03 10:20:46;;;;;;;4.38;3.65;;;11.60;84.30;;;;;;5039934;28;20632;-79
2021/11/03 10:23:20;;;;;;;4.20;3.85;;;11.40;85.00;;;;;;5039240;28;20233;-80
2021/11/03 10:25:55;;;;;;;4.78;3.60;;;11.30;84.90;;;;;;5038620;28;20674;-79
2021/11/03 10:28:36;;;;;;;5.55;3.83;;;11.00;87.90;;;;;;5040403;28;20241;-78
2021/11/03 10:31:07;;;;;;;4.30;3.90;;;11.00;89.70;;;;;;5038168;28;20551;-79
2021/11/03 10:33:39;;;;;;;3.72;3.38;;;11.10;89.80;;;;;;5038217;28;20215;-78
2021/11/03 10:36:15;;;;;;;7.53;4.05;;;11.30;89.50;;;;;;5039225;28;20676;-78
2021/11/03 10:38:48;;;;;;;3.00;2.80;;;11.30;90.00;;;;;;5055130;28;20206;-80
2021/11/03 10:41:22;;;;;;;4.70;3.38;;;11.40;86.00;;;;;;5043769;28;20231;-79
2021/11/03 10:44:00;;;;;;;2.88;2.67;;;11.40;84.50;;;;;;5044224;28;20196;-79
2021/11/03 10:46:31;;;;;;;4.57;3.25;;;11.20;84.80;;;;;;5052409;28;20215;-79
2021/11/03 10:52:00;;;;;;;3.38;3.08;;;11.00;87.10;;;;;;5040260;28;20199;-79
2021/11/03 10:54:39;;;;;;;3.05;2.75;;;10.80;88.00;;;;;;5040681;28;20213;-79
2021/11/03 10:57:19;;;;;;;5.53;3.33;;;10.90;89.50;;;;;;5040346;28;20226;-78
2021/11/03 10:59:51;;;;;;;5.60;3.28;;;11.00;89.70;;;;;;5040567;28;20274;-79
2021/11/03 11:02:28;;;;;;;3.10;2.90;;;11.00;89.70;;;;;;5039580;28;20215;-78
2021/11/03 11:04:57;;;;;;;6.80;3.42;;;11.10;89.60;;;;;;5054125;28;20206;-78
2021/11/03 11:07:29;;;;;;;4.47;3.42;;;11.10;87.80;;;;;;5056596;28;20269;-78
2021/11/03 11:10:01;;;;;;;4.88;3.33;;;11.00;88.70;;;;;;5055206;28;20215;-78
2021/11/03 11:12:30;;;;;;;5.15;4.25;;;10.90;89.40;;;;;;5057704;28;20254;-79
2021/11/03 11:14:59;;;;;;;5.70;4.00;;;10.90;89.80;;;;;;5048835;28;20203;-78
2021/11/03 11:17:35;;;;;;;6.10;3.45;;;10.90;89.60;;;;;;5055042;28;20233;-79
2021/11/03 11:20:10;;;;;;;4.30;3.90;;;10.80;89.50;;;;;;5058235;28;20251;-78
2021/11/03 11:22:56;;;;;;;4.55;4.15;;;10.80;89.50;;;;;;5056931;28;20207;-80
2021/11/03 11:25:30;;;;;;;8.30;4.35;;;10.70;89.50;;;;;;5037444;28;20214;-79
2021/11/03 11:28:19;;;;;;;5.28;4.55;;;10.60;89.40;;;;;;5039383;28;20231;-79
2021/11/03 11:30:53;;;;;;;5.68;4.20;;;10.60;91.30;;;;;;5036118;28;20211;-79
2021/11/03 11:33:26;;;;;;;6.50;4.85;;;10.60;91.50;;;;;;5035760;28;20203;-79
2021/11/03 11:36:13;;;;;;;5.07;4.57;;;10.50;91.80;;;;;;5036298;28;20233;-79
2021/11/03 11:38:50;;;;;;;5.68;4.32;;;10.60;92.90;;;;;;5036745;28;20274;-79
2021/11/03 11:41:23;;;;;;;4.93;4.47;;;10.60;92.90;;;;;;5047967;28;20238;-78
2021/11/03 11:43:53;;;;;;;4.90;4.40;;;10.50;93.30;;;;;;5056382;28;20214;-79
2021/11/03 11:46:22;;;;;;;5.97;4.15;;;10.50;93.30;;;;;;5054890;28;20231;-79
2021/11/03 11:48:53;;;;;;;6.60;4.43;;;10.40;92.60;;;;;;5054095;28;20211;-78
2021/11/03 11:51:26;;;;;;;5.40;4.90;;;10.40;93.20;;;;;;5043134;28;20214;-77
2021/11/03 11:54:17;;;;;;;6.13;5.50;;;10.50;93.30;;;;;;5036540;28;20191;-79
2021/11/03 11:56:44;;;;;;;5.88;5.38;;;10.40;93.20;;;;;;5035834;28;20232;-79
2021/11/03 11:59:21;;;;;;;5.50;4.30;;;10.30;93.60;;;;;;5039507;28;20206;-79
2021/11/03 12:02:01;;;;;;;5.85;5.32;;;10.40;94.30;;;;;;5041488;28;20198;-78
2021/11/03 12:04:39;;;;;;;4.80;4.40;;;10.40;94.30;;;;;;5037899;28;20202;-79
2021/11/03 12:12:23;;;;;;;6.25;5.20;;;10.50;94.50;;;;;;5393212;22;20257;-77
2021/11/03 12:14:52;;;;;;;5.45;5.05;;;10.60;94.50;;;;;;5048996;28;20203;-79
2021/11/03 12:17:36;;;;;;;5.75;4.53;;;10.70;93.70;;;;;;5055142;28;20211;-76
2021/11/03 12:20:45;;;;;;;5.63;5.13;;;10.70;94.10;;;;;;5043524;28;20226;-78
2021/11/03 12:23:58;;;;;;;5.43;4.70;;;10.80;93.40;;;;;;5048733;28;20183;-78
2021/11/03 12:29:56;;;;;;;5.65;5.00;;;10.80;92.60;;;;;;5057543;22;20265;-78
2021/11/03 12:32:30;;;;;;;5.47;4.70;;;10.80;93.40;;;;;;5038795;28;20213;-79
2021/11/03 12:35:26;;;;;;;4.78;4.38;;;11.00;93.70;;;;;;5037030;28;20187;-80
2021/11/03 12:37:59;;;;;;;5.88;5.20;;;11.00;93.50;;;;;;5050218;28;20258;-78
2021/11/03 12:40:39;;;;;;;4.93;4.43;;;11.10;93.10;;;;;;5050271;28;20195;-77
2021/11/03 12:43:17;;;;;;;5.13;4.63;;;11.20;92.20;;;;;;5037994;28;20671;-78
2021/11/03 12:45:54;;;;;;;4.10;3.70;;;11.10;91.60;;;;;;5039667;28;20201;-79
2021/11/03 12:48:23;;;;;;;5.38;4.88;;;11.00;91.70;;;;;;5040968;28;20238;-78
2021/11/03 12:50:51;;;;;;;7.82;4.70;;;10.90;92.20;;;;;;5040537;28;20663;-78
2021/11/03 12:53:24;;;;;;;5.50;4.53;;;10.80;93.40;;;;;;5042877;28;20207;-77
2021/11/03 12:55:57;;;;;;;10.00;9.10;;;10.80;93.60;;;;;;5050667;28;20217;-80
2021/11/03 12:58:30;;;;;;;6.97;6.18;;;10.90;94.00;;;;;;5053835;28;20226;-77
2021/11/03 13:00:58;;;;;;;5.63;5.00;;;10.90;94.80;;;;;;5051846;28;20242;-79
2021/11/03 13:03:29;;;;;;;4.95;4.45;;;11.00;94.90;;;;;;5042281;28;20222;-79
2021/11/03 13:06:00;;;;;;;6.47;4.75;;;11.00;94.50;;;;;;5040630;28;20261;-79
2021/11/03 13:08:30;;;;;;;8.20;5.47;;;10.80;93.40;;;;;;5036359;28;20207;-78
2021/11/03 13:17:51;;;;;;;7.50;5.53;;;10.70;95.80;;;;;;5020416;28;20223;-79
2021/11/03 13:20:26;;;;;;;6.07;5.20;;;10.80;95.80;;;;;;4964548;28;20257;-79
2021/11/03 13:22:54;;;;;;;6.50;5.47;;;10.90;95.90;;;;;;4966392;29;20217;-78
2021/11/03 13:25:27;;;;;;;5.60;4.85;;;10.90;95.80;;;;;;4970001;28;20276;-77
2021/11/03 13:27:55;;;;;;;8.10;5.28;;;11.00;95.80;;;;;;4970710;28;20287;-78
2021/11/03 13:30:25;;;;;;;7.80;4.82;;;11.00;95.30;;;;;;4966013;28;20246;-78
2021/11/03 13:32:55;;;;;;;11.15;6.18;;;11.10;94.90;;;;;;4973386;28;20212;-78
2021/11/03 13:35:24;;;;;;;5.50;5.00;;;11.10;94.60;;;;;;4956944;28;20662;-79
2021/11/03 13:37:54;;;;;;;5.95;4.90;;;11.20;94.40;;;;;;4962894;28;20325;-78
2021/11/03 13:40:27;;;;;;;7.20;5.15;;;11.20;93.60;;;;;;4965283;28;20560;-79
2021/11/03 13:43:14;;;;;;;4.88;4.15;;;11.10;93.90;;;;;;4955190;28;20293;-79
2021/11/03 13:45:44;;;;;;;4.50;4.05;;;11.10;94.20;;;;;;4956073;28;20208;-78
2021/11/03 13:48:20;;;;;;;5.10;4.38;;;11.20;94.40;;;;;;4980502;28;20291;-80